Time;durP1;ratioP1;P1;durP2;ratioP2;P2;SDS_P1;SDS_P2;PMS_P1;PMS_P2;Temp;Humidity;BMP_temperature;BMP_pressure;BME280_temperature;BME280_humidity;BME280_pressure;Samples;Min_cycle;Max_cycle;Signal;HPM_P1;HPM_P2
2023/04/05 00:02:21;;;;;;;4.33;3.93;;;;;;;;;;5042147;28;20202;-37
2023/04/05 00:04:56;;;;;;;4.63;3.47;;;;;;;;;;5051822;28;20205;-39
2023/04/05 00:07:25;;;;;;;5.97;4.50;;;;;;;;;;5052627;28;20190;-39
2023/04/05 00:09:52;;;;;;;6.90;4.10;;;;;;;;;;5043985;28;20202;-43
2023/04/05 00:12:21;;;;;;;7.30;4.03;;;;;;;;;;5051567;28;20213;-37
2023/04/05 00:14:48;;;;;;;6.20;3.63;;;;;;;;;;5050835;28;20202;-41
2023/04/05 00:17:15;;;;;;;4.90;3.93;;;;;;;;;;5044030;28;20211;-38
2023/04/05 00:19:43;;;;;;;5.83;4.40;;;;;;;;;;5050518;28;20955;-36
2023/04/05 00:22:11;;;;;;;6.23;4.10;;;;;;;;;;5043299;28;20207;-37
2023/04/05 00:24:40;;;;;;;5.30;4.00;;;;;;;;;;5033871;28;20316;-40
2023/04/05 00:27:08;;;;;;;6.37;3.83;;;;;;;;;;5051136;28;20673;-36
2023/04/05 00:29:36;;;;;;;5.07;3.87;;;;;;;;;;5051512;28;20816;-38
2023/04/05 00:32:04;;;;;;;4.83;4.20;;;;;;;;;;5040911;28;20210;-42
2023/04/05 00:34:32;;;;;;;6.17;3.63;;;;;;;;;;5053223;28;20226;-38
2023/04/05 00:36:59;;;;;;;7.10;4.00;;;;;;;;;;5053103;28;20198;-35
2023/04/05 00:39:26;;;;;;;4.50;4.10;;;;;;;;;;5051465;28;20238;-37
2023/04/05 00:41:53;;;;;;;4.57;3.77;;;;;;;;;;5040393;28;20280;-37
2023/04/05 00:44:21;;;;;;;5.80;3.90;;;;;;;;;;5051218;28;20789;-41
2023/04/05 00:46:49;;;;;;;4.70;3.60;;;;;;;;;;5043999;28;20209;-37
2023/04/05 00:49:17;;;;;;;4.67;3.90;;;;;;;;;;5055241;28;20202;-39
2023/04/05 00:51:44;;;;;;;5.33;3.83;;;;;;;;;;5055086;28;20248;-38
2023/04/05 00:54:12;;;;;;;6.10;3.63;;;;;;;;;;5055986;28;20228;-40
2023/04/05 00:56:40;;;;;;;5.43;3.83;;;;;;;;;;5047323;28;20205;-40
2023/04/05 00:59:07;;;;;;;5.23;3.70;;;;;;;;;;5055920;28;20572;-37
2023/04/05 01:01:39;;;;;;;4.00;3.57;;;;;;;;;;5041938;28;20229;-41
2023/04/05 01:04:07;;;;;;;5.33;3.87;;;;;;;;;;5052922;28;20225;-42
2023/04/05 01:06:43;;;;;;;5.07;3.87;;;;;;;;;;5054592;28;20222;-39
2023/04/05 01:09:14;;;;;;;4.93;3.30;;;;;;;;;;5054737;28;20186;-38
2023/04/05 01:11:43;;;;;;;7.40;4.47;;;;;;;;;;5050374;28;20202;-37
2023/04/05 01:14:10;;;;;;;5.23;3.67;;;;;;;;;;5050024;28;20230;-37
2023/04/05 01:16:38;;;;;;;4.70;3.40;;;;;;;;;;5049031;28;20238;-40
2023/04/05 01:19:05;;;;;;;4.37;3.67;;;;;;;;;;5054544;28;20202;-36
2023/04/05 01:21:45;;;;;;;6.07;3.83;;;;;;;;;;5054432;28;20213;-39
2023/04/05 01:24:19;;;;;;;6.77;3.77;;;;;;;;;;5047370;28;20233;-37
2023/04/05 01:27:01;;;;;;;5.47;3.60;;;;;;;;;;5051969;28;20276;-38
2023/04/05 01:29:48;;;;;;;6.40;4.30;;;;;;;;;;5034891;28;20199;-39
2023/04/05 01:32:36;;;;;;;7.60;3.90;;;;;;;;;;5042852;28;20271;-40
2023/04/05 01:35:08;;;;;;;5.30;4.10;;;;;;;;;;5039537;28;20236;-39
2023/04/05 01:37:35;;;;;;;6.17;4.30;;;;;;;;;;5052181;28;20202;-43
2023/04/05 01:40:04;;;;;;;4.63;3.47;;;;;;;;;;5048211;28;20213;-45
2023/04/05 01:42:32;;;;;;;6.47;3.70;;;;;;;;;;5050886;28;20283;-36
2023/04/05 01:45:00;;;;;;;3.97;3.63;;;;;;;;;;5048674;28;20210;-38
2023/04/05 01:47:27;;;;;;;4.73;3.93;;;;;;;;;;5047750;28;20225;-38
2023/04/05 01:49:54;;;;;;;6.10;4.30;;;;;;;;;;5050667;28;20202;-40
2023/04/05 01:52:22;;;;;;;6.73;4.37;;;;;;;;;;5051504;28;20209;-34
2023/04/05 01:54:49;;;;;;;6.77;4.33;;;;;;;;;;5050375;28;20221;-42
2023/04/05 01:57:18;;;;;;;5.23;3.33;;;;;;;;;;5040835;28;20230;-37
2023/04/05 01:59:45;;;;;;;6.67;4.33;;;;;;;;;;5053661;28;20198;-38
2023/04/05 02:02:14;;;;;;;7.73;4.30;;;;;;;;;;5046483;28;20209;-38
2023/04/05 02:04:42;;;;;;;6.50;4.27;;;;;;;;;;5055320;28;20225;-37
2023/04/05 02:07:09;;;;;;;7.30;4.50;;;;;;;;;;5054911;28;20221;-41
2023/04/05 02:09:36;;;;;;;6.33;4.60;;;;;;;;;;5046587;28;20702;-39
2023/04/05 02:12:04;;;;;;;8.60;4.40;;;;;;;;;;5048201;28;20216;-38
2023/04/05 02:14:31;;;;;;;6.97;4.30;;;;;;;;;;5053910;28;20309;-39
2023/04/05 02:17:01;;;;;;;3.80;3.47;;;;;;;;;;5043126;28;20451;-37
2023/04/05 02:19:39;;;;;;;5.93;4.00;;;;;;;;;;5053314;28;20226;-38
2023/04/05 02:22:06;;;;;;;4.63;3.83;;;;;;;;;;5053817;28;20226;-33
2023/04/05 02:24:34;;;;;;;4.83;3.70;;;;;;;;;;5046709;28;20226;-42
2023/04/05 02:27:01;;;;;;;6.27;3.43;;;;;;;;;;5038492;28;20222;-35
2023/04/05 02:29:28;;;;;;;8.37;3.93;;;;;;;;;;5047913;28;20202;-39
2023/04/05 02:31:55;;;;;;;5.17;3.60;;;;;;;;;;5042912;28;20295;-41
2023/04/05 02:34:23;;;;;;;6.17;4.33;;;;;;;;;;5049618;28;20222;-39
2023/04/05 02:36:52;;;;;;;5.80;4.13;;;;;;;;;;5053793;28;20202;-42
2023/04/05 02:39:19;;;;;;;7.03;4.30;;;;;;;;;;5048811;28;20216;-40
2023/04/05 02:41:46;;;;;;;5.20;4.33;;;;;;;;;;5049587;28;20260;-38
2023/04/05 02:44:14;;;;;;;5.70;3.60;;;;;;;;;;5052197;28;20222;-40
2023/04/05 02:49:41;;;;;;;4.37;3.60;;;;;;;;;;5635133;22;20234;-34
2023/04/05 02:52:20;;;;;;;5.80;3.90;;;;;;;;;;5590700;22;20322;-28
2023/04/05 02:54:51;;;;;;;4.23;3.77;;;;;;;;;;5126167;27;20199;-27
2023/04/05 03:03:43;;;;;;;4.67;4.03;;;;;;;;;;5121635;27;20219;-27
2023/04/05 03:12:21;;;;;;;9.30;3.90;;;;;;;;;;5117632;27;20215;-28
2023/04/05 03:15:01;;;;;;;6.23;3.80;;;;;;;;;;5399271;22;20339;-26
2023/04/05 03:20:50;;;;;;;7.47;4.10;;;;;;;;;;5089941;28;20220;-26
2023/04/05 03:34:27;;;;;;;10.23;3.87;;;;;;;;;;5505536;22;20233;-34
2023/04/05 03:39:41;;;;;;;5.57;3.87;;;;;;;;;;5056916;28;20209;-39
2023/04/05 03:42:26;;;;;;;5.93;3.97;;;;;;;;;;5084126;28;20217;-35
2023/04/05 03:45:29;;;;;;;6.97;3.70;;;;;;;;;;5064995;28;20205;-41
2023/04/05 03:48:18;;;;;;;5.53;3.87;;;;;;;;;;5054448;28;20231;-35
2023/04/05 03:51:03;;;;;;;4.80;3.93;;;;;;;;;;5072347;28;20225;-37
2023/04/05 03:59:39;;;;;;;6.03;4.23;;;;;;;;;;5331947;22;20232;-37
2023/04/05 04:02:25;;;;;;;6.20;3.80;;;;;;;;;;5087235;28;20239;-37
2023/04/05 04:08:16;;;;;;;6.50;4.23;;;;;;;;;;5366648;22;20249;-25
2023/04/05 04:10:53;;;;;;;7.00;4.40;;;;;;;;;;5048544;28;20221;-26
2023/04/05 04:13:45;;;;;;;8.37;4.73;;;;;;;;;;5060710;28;20221;-27
2023/04/05 04:16:41;;;;;;;7.67;4.43;;;;;;;;;;5038870;28;20286;-30
2023/04/05 04:19:35;;;;;;;6.13;4.00;;;;;;;;;;5051207;28;20201;-28
2023/04/05 04:28:13;;;;;;;7.90;4.23;;;;;;;;;;5112106;22;20233;-28
2023/04/05 04:30:49;;;;;;;5.90;4.30;;;;;;;;;;5070281;28;20454;-28
2023/04/05 04:33:33;;;;;;;;;;;;;;;;;;;;;
2023/04/05 04:36:26;;;;;;;;;;;;;;;;;;;;;
2023/04/05 04:39:21;;;;;;;7.93;4.67;;;;;;;;;;5054704;28;20205;-28
2023/04/05 04:45:04;;;;;;;7.23;4.03;;;;;;;;;;5043074;28;20205;-30
2023/04/05 04:47:37;;;;;;;8.37;4.20;;;;;;;;;;5031325;28;20226;-28
2023/04/05 04:50:13;;;;;;;4.50;3.60;;;;;;;;;;5049737;28;20229;-30
2023/04/05 04:52:58;;;;;;;5.80;3.73;;;;;;;;;;5055654;28;20221;-29
2023/04/05 04:55:48;;;;;;;7.77;4.40;;;;;;;;;;5043200;28;20213;-29
2023/04/05 04:58:19;;;;;;;11.13;4.13;;;;;;;;;;5041313;28;20229;-28
2023/04/05 05:01:05;;;;;;;6.43;4.07;;;;;;;;;;5043971;28;20205;-27
2023/04/05 05:10:02;;;;;;;;;;;;;;;;;;;;;
2023/04/05 05:12:41;;;;;;;6.03;3.83;;;;;;;;;;5045611;28;20206;-31
2023/04/05 05:15:30;;;;;;;7.43;4.67;;;;;;;;;;5052492;28;20656;-29
2023/04/05 05:18:12;;;;;;;5.73;4.43;;;;;;;;;;5043491;28;20213;-27
2023/04/05 05:24:13;;;;;;;;;;;;;;;;;;;;;
2023/04/05 05:29:55;;;;;;;5.07;4.00;;;;;;;;;;4973391;28;20299;-29
2023/04/05 05:38:53;;;;;;;6.83;4.50;;;;;;;;;;5034840;28;20282;-29
2023/04/05 05:42:00;;;;;;;5.47;4.43;;;;;;;;;;5043601;28;20213;-29
2023/04/05 05:45:07;;;;;;;5.93;4.73;;;;;;;;;;4973895;28;20232;-29
2023/04/05 05:47:52;;;;;;;6.13;4.37;;;;;;;;;;5004346;28;20265;-27
2023/04/05 05:50:40;;;;;;;5.30;4.23;;;;;;;;;;5054077;28;20206;-29
2023/04/05 05:53:21;;;;;;;7.17;5.20;;;;;;;;;;5054635;28;20230;-28
2023/04/05 05:56:12;;;;;;;6.40;4.73;;;;;;;;;;5046930;28;20198;-30
2023/04/05 05:59:02;;;;;;;7.40;4.70;;;;;;;;;;5053888;28;20198;-29
2023/04/05 06:01:53;;;;;;;4.77;4.27;;;;;;;;;;5048808;28;20242;-27
2023/04/05 06:04:53;;;;;;;5.87;4.03;;;;;;;;;;5051291;28;20232;-37
2023/04/05 06:07:36;;;;;;;6.47;4.33;;;;;;;;;;5049999;28;20232;-29
2023/04/05 06:13:32;;;;;;;10.07;5.77;;;;;;;;;;5026460;28;20360;-27
2023/04/05 06:16:19;;;;;;;8.33;5.00;;;;;;;;;;5043718;28;20209;-26
2023/04/05 06:22:15;;;;;;;8.30;4.73;;;;;;;;;;5053531;28;20206;-27
2023/04/05 06:25:22;;;;;;;8.90;4.77;;;;;;;;;;5053774;28;20218;-28
2023/04/05 06:28:18;;;;;;;13.67;5.67;;;;;;;;;;5051595;28;20234;-30
2023/04/05 06:30:58;;;;;;;7.47;5.13;;;;;;;;;;5033685;28;20239;-29
2023/04/05 06:34:03;;;;;;;8.33;5.60;;;;;;;;;;5053555;28;20304;-29
2023/04/05 07:12:43;;;;;;;9.17;5.40;;;;;;;;;;5071963;28;20228;-26
2023/04/05 07:15:58;;;;;;;5.77;5.03;;;;;;;;;;5052189;28;20198;-28
2023/04/05 07:32:02;;;;;;;;;;;;;;;;;;;;;
2023/04/05 07:53:55;;;;;;;6.80;5.10;;;;;;;;;;4925882;29;20237;-28
2023/04/05 08:03:01;;;;;;;6.83;4.73;;;;;;;;;;4959424;28;20564;-29
2023/04/05 08:11:51;;;;;;;6.37;4.77;;;;;;;;;;4951366;28;20213;-28
2023/04/05 08:14:52;;;;;;;6.83;4.83;;;;;;;;;;4956966;28;20232;-28
2023/04/05 08:20:58;;;;;;;5.97;4.03;;;;;;;;;;5025721;28;20206;-27
2023/04/05 08:29:41;;;;;;;5.40;4.00;;;;;;;;;;5042489;28;20608;-29
2023/04/05 08:32:55;;;;;;;;;;;;;;;;;;;;;
2023/04/05 08:35:53;;;;;;;7.17;4.03;;;;;;;;;;5049304;28;20205;-27
2023/04/05 08:48:19;;;;;;;5.57;3.50;;;;;;;;;;5029907;28;20288;-29
2023/04/05 08:51:16;;;;;;;4.33;3.27;;;;;;;;;;5038369;28;20199;-31
2023/04/05 08:56:42;;;;;;;6.63;3.30;;;;;;;;;;5059051;22;20243;-28
2023/04/05 08:59:11;;;;;;;4.07;3.47;;;;;;;;;;5081759;28;20191;-27
2023/04/05 09:01:39;;;;;;;3.70;3.40;;;;;;;;;;5077015;28;20202;-31
2023/04/05 09:04:07;;;;;;;5.77;3.70;;;;;;;;;;5075759;28;20286;-29
2023/04/05 09:06:36;;;;;;;5.67;3.37;;;;;;;;;;5082751;28;20201;-28
2023/04/05 09:09:06;;;;;;;3.20;2.90;;;;;;;;;;5078504;28;20230;-28
2023/04/05 09:11:34;;;;;;;4.40;3.23;;;;;;;;;;5076740;28;20197;-28
2023/04/05 09:14:03;;;;;;;2.90;2.63;;;;;;;;;;5075991;28;20236;-27
2023/04/05 09:16:32;;;;;;;3.93;3.00;;;;;;;;;;5069599;28;20205;-28
2023/04/05 09:19:00;;;;;;;3.47;3.17;;;;;;;;;;5079262;28;20250;-27
2023/04/05 09:21:29;;;;;;;4.33;3.50;;;;;;;;;;5080631;28;20196;-28
2023/04/05 09:23:56;;;;;;;4.57;3.07;;;;;;;;;;5076578;28;20225;-26
2023/04/05 09:26:24;;;;;;;3.03;2.73;;;;;;;;;;5080851;28;20211;-30
2023/04/05 09:28:51;;;;;;;3.60;2.70;;;;;;;;;;5081180;28;20223;-27
2023/04/05 09:31:32;;;;;;;3.47;3.17;;;;;;;;;;5076199;28;20211;-28
2023/04/05 09:34:01;;;;;;;3.40;3.03;;;;;;;;;;5076350;28;20220;-29
2023/04/05 09:36:28;;;;;;;3.53;3.17;;;;;;;;;;5079215;28;20204;-29
2023/04/05 09:39:04;;;;;;;5.07;3.10;;;;;;;;;;5075059;28;20200;-32
2023/04/05 09:41:32;;;;;;;4.27;3.00;;;;;;;;;;5079254;28;20200;-31
2023/04/05 09:43:59;;;;;;;4.23;3.43;;;;;;;;;;5080571;28;20227;-26
2023/04/05 09:46:30;;;;;;;3.70;3.40;;;;;;;;;;5074281;28;20213;-27
2023/04/05 09:48:59;;;;;;;3.37;2.90;;;;;;;;;;5078079;28;20277;-29
2023/04/05 09:51:32;;;;;;;5.90;3.60;;;;;;;;;;5079818;28;20194;-32
2023/04/05 09:53:59;;;;;;;4.90;3.60;;;;;;;;;;5077903;28;20221;-29
2023/04/05 09:56:27;;;;;;;5.60;3.40;;;;;;;;;;5072014;28;20205;-30
2023/04/05 09:58:54;;;;;;;6.67;3.80;;;;;;;;;;5075356;28;20498;-27
2023/04/05 10:01:21;;;;;;;5.00;3.37;;;;;;;;;;5066186;28;20201;-30
2023/04/05 10:03:49;;;;;;;5.50;3.17;;;;;;;;;;5070420;28;20224;-30
2023/04/05 10:06:17;;;;;;;6.80;3.63;;;;;;;;;;5074604;28;20285;-29
2023/04/05 10:08:45;;;;;;;5.73;3.30;;;;;;;;;;5083187;28;20216;-28
2023/04/05 10:11:13;;;;;;;4.30;3.13;;;;;;;;;;5072355;28;20205;-27
2023/04/05 10:13:41;;;;;;;4.87;3.53;;;;;;;;;;5078426;28;20227;-30
2023/04/05 10:16:10;;;;;;;4.03;2.73;;;;;;;;;;5068439;28;20280;-29
2023/04/05 10:18:41;;;;;;;3.67;2.87;;;;;;;;;;5073561;28;20198;-27
2023/04/05 10:21:11;;;;;;;3.37;3.07;;;;;;;;;;5081307;28;20205;-28
2023/04/05 10:23:43;;;;;;;3.93;3.43;;;;;;;;;;5070634;28;20296;-29
2023/04/05 10:26:15;;;;;;;6.13;2.50;;;;;;;;;;5070675;28;20205;-30
2023/04/05 10:28:44;;;;;;;2.97;2.77;;;;;;;;;;5078776;28;20251;-26
2023/04/05 10:31:12;;;;;;;4.40;3.10;;;;;;;;;;5075178;28;20217;-29
2023/04/05 10:33:40;;;;;;;4.47;3.23;;;;;;;;;;5072416;28;20229;-29
2023/04/05 10:36:15;;;;;;;4.00;3.33;;;;;;;;;;5080300;28;20201;-29
2023/04/05 10:38:49;;;;;;;5.00;3.73;;;;;;;;;;5077818;28;20201;-26
2023/04/05 10:41:17;;;;;;;3.77;3.23;;;;;;;;;;5068879;28;20210;-28
2023/04/05 10:43:45;;;;;;;4.73;3.73;;;;;;;;;;5080073;28;20304;-29
2023/04/05 10:46:12;;;;;;;3.60;3.20;;;;;;;;;;5072972;28;20213;-30
2023/04/05 10:48:45;;;;;;;4.10;3.57;;;;;;;;;;5080107;28;20220;-27
2023/04/05 10:51:13;;;;;;;3.90;3.57;;;;;;;;;;5080620;28;20215;-29
2023/04/05 10:53:41;;;;;;;4.27;3.70;;;;;;;;;;5076129;28;20215;-30
2023/04/05 10:56:10;;;;;;;5.20;3.87;;;;;;;;;;5072566;28;20291;-29
2023/04/05 10:58:39;;;;;;;4.33;3.33;;;;;;;;;;5078427;28;20215;-26
2023/04/05 11:01:08;;;;;;;4.33;3.33;;;;;;;;;;5075657;28;20193;-29
2023/04/05 11:03:48;;;;;;;3.93;3.23;;;;;;;;;;5073330;28;20220;-29
2023/04/05 11:06:19;;;;;;;3.90;3.50;;;;;;;;;;5071241;28;20255;-29
2023/04/05 11:08:46;;;;;;;3.83;3.50;;;;;;;;;;5071080;28;20245;-30
2023/04/05 11:11:16;;;;;;;6.03;3.30;;;;;;;;;;5075257;28;20201;-27
2023/04/05 11:13:48;;;;;;;4.60;3.63;;;;;;;;;;5072889;28;20229;-27
2023/04/05 11:16:15;;;;;;;7.90;3.87;;;;;;;;;;5069564;28;20291;-26
2023/04/05 11:18:46;;;;;;;3.97;3.37;;;;;;;;;;5062330;28;20199;-26
2023/04/05 11:21:20;;;;;;;4.27;3.53;;;;;;;;;;5080388;28;20204;-29
2023/04/05 11:24:02;;;;;;;3.40;3.10;;;;;;;;;;5081709;28;20291;-25
2023/04/05 11:26:34;;;;;;;4.27;3.47;;;;;;;;;;5068770;28;20204;-27
2023/04/05 11:29:02;;;;;;;7.13;3.43;;;;;;;;;;5078532;28;20248;-30
2023/04/05 11:31:29;;;;;;;6.80;3.40;;;;;;;;;;5070720;28;20209;-28
2023/04/05 11:33:58;;;;;;;4.97;3.33;;;;;;;;;;5073488;28;20221;-29
2023/04/05 11:36:32;;;;;;;3.23;2.93;;;;;;;;;;5077071;28;20197;-26
2023/04/05 11:39:17;;;;;;;5.73;3.83;;;;;;;;;;5076751;28;20287;-29
2023/04/05 11:41:47;;;;;;;4.60;4.20;;;;;;;;;;5058943;28;20215;-28
2023/04/05 11:44:15;;;;;;;4.57;3.13;;;;;;;;;;5072648;28;20606;-29
2023/04/05 11:46:42;;;;;;;4.07;3.67;;;;;;;;;;5060301;28;20206;-29
2023/04/05 11:49:10;;;;;;;4.27;3.83;;;;;;;;;;5075904;28;20216;-28
2023/04/05 11:51:37;;;;;;;6.33;3.40;;;;;;;;;;5075002;28;20208;-26
2023/04/05 11:54:04;;;;;;;4.53;3.27;;;;;;;;;;5071295;28;20217;-27
2023/04/05 11:56:31;;;;;;;4.43;3.20;;;;;;;;;;5077423;28;20205;-28
2023/04/05 11:59:00;;;;;;;4.87;3.33;;;;;;;;;;5080777;28;20200;-26
2023/04/05 12:01:28;;;;;;;3.80;3.40;;;;;;;;;;5061026;28;20264;-27
2023/04/05 12:03:55;;;;;;;3.77;3.43;;;;;;;;;;5050650;28;20284;-30
2023/04/05 12:06:23;;;;;;;3.77;2.83;;;;;;;;;;5075463;28;20212;-27
2023/04/05 12:08:50;;;;;;;3.37;3.07;;;;;;;;;;5074242;28;20213;-27
2023/04/05 12:11:17;;;;;;;4.93;3.57;;;;;;;;;;5077787;28;20201;-25
2023/04/05 12:13:46;;;;;;;3.90;3.50;;;;;;;;;;5080271;28;20236;-26
2023/04/05 12:16:14;;;;;;;3.70;3.30;;;;;;;;;;5073120;28;20208;-27
2023/04/05 12:18:41;;;;;;;3.83;3.50;;;;;;;;;;5070173;28;20208;-29
2023/04/05 12:21:10;;;;;;;6.57;3.87;;;;;;;;;;5077306;28;20207;-26
2023/04/05 12:23:37;;;;;;;4.13;3.83;;;;;;;;;;5071920;28;20224;-26
2023/04/05 12:26:07;;;;;;;3.60;3.30;;;;;;;;;;5069339;28;20205;-28
2023/04/05 12:28:53;;;;;;;4.40;3.37;;;;;;;;;;5075985;28;20204;-28
2023/04/05 12:31:35;;;;;;;3.53;3.23;;;;;;;;;;5071577;28;20209;-27
2023/04/05 12:34:03;;;;;;;4.23;3.60;;;;;;;;;;5077890;28;20219;-29
2023/04/05 12:36:31;;;;;;;5.63;4.10;;;;;;;;;;5087114;28;20264;-26
2023/04/05 12:38:58;;;;;;;6.33;3.90;;;;;;;;;;5076841;28;20214;-26
2023/04/05 12:41:28;;;;;;;5.37;3.60;;;;;;;;;;5077349;28;20284;-28
2023/04/05 12:43:59;;;;;;;3.90;3.53;;;;;;;;;;5084771;28;20209;-26
2023/04/05 12:46:39;;;;;;;4.43;3.73;;;;;;;;;;5073733;28;20210;-28
2023/04/05 12:49:07;;;;;;;4.93;3.73;;;;;;;;;;5080173;28;20227;-26
2023/04/05 12:51:35;;;;;;;5.37;4.37;;;;;;;;;;5080770;28;20193;-29
2023/04/05 12:54:03;;;;;;;4.77;3.80;;;;;;;;;;5082470;28;20221;-26
2023/04/05 12:56:31;;;;;;;5.03;3.57;;;;;;;;;;5068041;28;20197;-25
2023/04/05 12:58:59;;;;;;;4.93;4.20;;;;;;;;;;5074763;28;20197;-28
2023/04/05 13:01:26;;;;;;;4.43;4.03;;;;;;;;;;5074821;28;20204;-27
2023/04/05 13:03:53;;;;;;;4.47;3.00;;;;;;;;;;5076858;28;20225;-27
2023/04/05 13:06:22;;;;;;;3.37;2.93;;;;;;;;;;5080817;28;20197;-27
2023/04/05 13:08:49;;;;;;;4.30;3.77;;;;;;;;;;5082885;28;20223;-29
2023/04/05 13:11:16;;;;;;;3.53;3.23;;;;;;;;;;5075384;28;20197;-31
2023/04/05 13:13:44;;;;;;;3.83;3.43;;;;;;;;;;5077769;28;20221;-36
2023/04/05 13:16:11;;;;;;;4.67;3.47;;;;;;;;;;5067494;28;20201;-35
2023/04/05 13:18:38;;;;;;;3.93;3.63;;;;;;;;;;5082232;28;20204;-34
2023/04/05 13:21:06;;;;;;;3.70;3.40;;;;;;;;;;5080680;28;20196;-32
2023/04/05 13:23:35;;;;;;;5.83;3.77;;;;;;;;;;5078873;28;20233;-35
2023/04/05 13:26:02;;;;;;;4.13;3.53;;;;;;;;;;5080622;28;20205;-38
2023/04/05 13:28:30;;;;;;;4.00;3.60;;;;;;;;;;5077306;28;20211;-35
2023/04/05 13:30:57;;;;;;;4.50;4.03;;;;;;;;;;5073512;28;20227;-36
2023/04/05 13:33:24;;;;;;;4.37;3.97;;;;;;;;;;5081048;28;20221;-32
2023/04/05 13:35:51;;;;;;;4.03;3.67;;;;;;;;;;5079287;28;20193;-34
2023/04/05 13:38:20;;;;;;;4.33;3.83;;;;;;;;;;5079719;28;20205;-33
2023/04/05 13:40:48;;;;;;;3.60;3.17;;;;;;;;;;5074094;28;20426;-34
2023/04/05 13:43:15;;;;;;;5.23;3.80;;;;;;;;;;5078699;28;20235;-31
2023/04/05 13:45:42;;;;;;;5.10;3.90;;;;;;;;;;5071689;28;20206;-35
2023/04/05 13:48:10;;;;;;;5.70;3.10;;;;;;;;;;5077903;28;20209;-31
2023/04/05 13:50:37;;;;;;;5.40;3.57;;;;;;;;;;5080039;28;20219;-37
2023/04/05 13:53:04;;;;;;;4.47;3.43;;;;;;;;;;5084440;28;20222;-32
2023/04/05 13:55:31;;;;;;;3.87;3.47;;;;;;;;;;5070162;28;20206;-33
2023/04/05 13:57:59;;;;;;;4.30;3.00;;;;;;;;;;5073609;28;20217;-36
2023/04/05 14:00:26;;;;;;;3.43;3.13;;;;;;;;;;5071049;28;20239;-34
2023/04/05 14:02:54;;;;;;;6.13;3.53;;;;;;;;;;5068928;28;20221;-37
2023/04/05 14:05:21;;;;;;;4.90;3.73;;;;;;;;;;5080952;28;20196;-38
2023/04/05 14:07:49;;;;;;;5.23;3.20;;;;;;;;;;5094146;28;20303;-30
2023/04/05 14:10:18;;;;;;;4.03;3.63;;;;;;;;;;5072584;28;20229;-37
2023/04/05 14:12:45;;;;;;;3.97;3.57;;;;;;;;;;5072695;28;20229;-31
2023/04/05 14:15:14;;;;;;;4.10;3.70;;;;;;;;;;5081107;28;20214;-36
2023/04/05 14:17:42;;;;;;;5.30;4.13;;;;;;;;;;5073213;28;20201;-35
2023/04/05 14:20:10;;;;;;;6.07;4.40;;;;;;;;;;5087564;28;20197;-37
2023/04/05 14:22:37;;;;;;;4.60;3.83;;;;;;;;;;5073888;28;20205;-34
2023/04/05 14:25:07;;;;;;;3.57;3.13;;;;;;;;;;5068591;28;20212;-33
2023/04/05 14:27:40;;;;;;;4.43;3.43;;;;;;;;;;5060254;28;20209;-35
2023/04/05 14:30:07;;;;;;;5.43;4.13;;;;;;;;;;5069546;28;20231;-33
2023/04/05 14:32:36;;;;;;;4.43;4.00;;;;;;;;;;5067807;28;20263;-34
2023/04/05 14:35:03;;;;;;;4.27;3.60;;;;;;;;;;5073197;28;20212;-37
2023/04/05 14:37:30;;;;;;;6.27;3.73;;;;;;;;;;5072832;28;20206;-29
2023/04/05 14:39:57;;;;;;;3.77;3.23;;;;;;;;;;5067262;28;20211;-36
2023/04/05 14:42:25;;;;;;;4.30;3.27;;;;;;;;;;5068292;28;20240;-32
2023/04/05 14:44:52;;;;;;;3.60;3.27;;;;;;;;;;5081545;28;20209;-34
2023/04/05 14:47:19;;;;;;;5.10;3.97;;;;;;;;;;5079304;28;20292;-31
2023/04/05 14:49:50;;;;;;;3.63;3.33;;;;;;;;;;5075657;28;20217;-35
2023/04/05 14:52:24;;;;;;;4.23;3.27;;;;;;;;;;5082834;28;20193;-36
2023/04/05 14:54:51;;;;;;;4.70;3.70;;;;;;;;;;5081464;28;20184;-32
2023/04/05 14:57:18;;;;;;;5.77;3.40;;;;;;;;;;5070284;28;20244;-38
2023/04/05 15:00:05;;;;;;;4.70;3.30;;;;;;;;;;5364257;22;20228;-37
2023/04/05 15:11:27;;;;;;;8.83;2.97;;;;;;;;;;5071312;28;20232;-36
2023/04/05 15:17:08;;;;;;;5.67;3.63;;;;;;;;;;5066470;28;20208;-37
2023/04/05 15:20:01;;;;;;;4.03;3.63;;;;;;;;;;5071485;28;20285;-36
2023/04/05 15:22:48;;;;;;;4.00;3.50;;;;;;;;;;5073457;28;20208;-32
2023/04/05 15:25:32;;;;;;;;;;;;;;;;;;;;;
2023/04/05 15:28:03;;;;;;;3.50;3.20;;;;;;;;;;5072546;28;20201;-37
2023/04/05 15:30:39;;;;;;;3.53;3.23;;;;;;;;;;5070497;28;20308;-38
2023/04/05 15:33:32;;;;;;;5.90;3.83;;;;;;;;;;5071827;28;20228;-29
2023/04/05 15:36:05;;;;;;;3.40;3.10;;;;;;;;;;5064883;28;20258;-36
2023/04/05 15:39:26;;;;;;;3.50;2.67;;;;;;;;;;5066461;28;20203;-35
2023/04/05 15:45:07;;;;;;;4.13;3.40;;;;;;;;;;5071020;28;20217;-36
2023/04/05 15:47:57;;;;;;;4.10;3.70;;;;;;;;;;5067148;28;20214;-35
2023/04/05 15:50:39;;;;;;;3.90;3.50;;;;;;;;;;5072104;28;20236;-34
2023/04/05 15:53:19;;;;;;;3.53;3.23;;;;;;;;;;5071701;28;20248;-35
2023/04/05 15:56:08;;;;;;;;;;;;;;;;;;;;;
2023/04/05 15:58:45;;;;;;;4.77;3.37;;;;;;;;;;5072068;28;20201;-31
2023/04/05 16:10:27;;;;;;;6.90;3.50;;;;;;;;;;5074092;28;20679;-39
2023/04/05 16:13:19;;;;;;;3.47;3.17;;;;;;;;;;5067996;28;20225;-33
2023/04/05 16:15:49;;;;;;;3.50;3.17;;;;;;;;;;5071063;28;20225;-35
2023/04/05 16:18:23;;;;;;;3.30;3.00;;;;;;;;;;5075290;28;20636;-39
2023/04/05 16:21:13;;;;;;;3.93;3.30;;;;;;;;;;5066215;28;20186;-39
2023/04/05 16:33:06;;;;;;;3.30;3.00;;;;;;;;;;5065735;28;20278;-36
2023/04/05 16:35:41;;;;;;;3.90;3.40;;;;;;;;;;5074932;28;20213;-34
2023/04/05 16:49:49;;;;;;;6.80;3.00;;;;;;;;;;5050669;28;20209;-36
2023/04/05 16:52:38;;;;;;;3.23;2.93;;;;;;;;;;5051503;28;20206;-37
2023/04/05 16:55:39;;;;;;;4.43;3.10;;;;;;;;;;5040195;28;20218;-38
2023/04/05 16:58:30;;;;;;;3.60;2.70;;;;;;;;;;5003291;28;20282;-38
2023/04/05 17:00:59;;;;;;;2.97;2.67;;;;;;;;;;5045632;28;20209;-42
2023/04/05 17:03:40;;;;;;;4.17;3.17;;;;;;;;;;5074176;28;20229;-34
2023/04/05 17:06:10;;;;;;;4.80;3.13;;;;;;;;;;5053298;28;20217;-39
2023/04/05 17:08:38;;;;;;;4.23;3.20;;;;;;;;;;5066151;28;20315;-35
2023/04/05 17:11:17;;;;;;;4.77;2.90;;;;;;;;;;5074015;28;20294;-35
2023/04/05 17:13:58;;;;;;;3.23;2.93;;;;;;;;;;5073794;28;20233;-34
2023/04/05 17:16:43;;;;;;;4.17;3.30;;;;;;;;;;5069842;28;20608;-36
2023/04/05 17:22:28;;;;;;;3.90;3.07;;;;;;;;;;5052348;28;20208;-35
2023/04/05 17:25:12;;;;;;;3.23;2.93;;;;;;;;;;5056209;28;20191;-35
2023/04/05 17:28:02;;;;;;;3.40;3.10;;;;;;;;;;5073250;28;20596;-35
2023/04/05 17:31:00;;;;;;;;;;;;;;;;;;;;;
2023/04/05 17:33:36;;;;;;;4.83;2.93;;;;;;;;;;5067579;28;20229;-38
2023/04/05 17:39:11;;;;;;;3.40;3.10;;;;;;;;;;5073109;28;20245;-42
2023/04/05 17:41:55;;;;;;;3.93;3.23;;;;;;;;;;5073685;28;20233;-38
2023/04/05 17:47:38;;;;;;;16.97;10.93;;;;;;;;;;5648499;22;20222;-26
2023/04/05 17:50:28;;;;;;;13.03;8.53;;;;;;;;;;5086728;28;20241;-34
2023/04/05 17:53:15;;;;;;;6.50;4.60;;;;;;;;;;5139257;22;20212;-29
2023/04/05 17:58:59;;;;;;;9.30;5.03;;;;;;;;;;5093709;28;20307;-30
2023/04/05 18:01:53;;;;;;;7.10;4.73;;;;;;;;;;5084405;28;20282;-27
2023/04/05 18:07:50;;;;;;;24.20;21.77;;;;;;;;;;5048845;28;20291;-28
2023/04/05 18:13:34;;;;;;;4.63;3.70;;;;;;;;;;5024255;28;20290;-27
2023/04/05 18:16:03;;;;;;;6.57;4.37;;;;;;;;;;5029124;28;20207;-28
2023/04/05 18:18:49;;;;;;;5.87;4.70;;;;;;;;;;5032087;28;20365;-29
2023/04/05 18:21:36;;;;;;;4.20;3.80;;;;;;;;;;5074902;28;20212;-26
2023/04/05 18:27:13;;;;;;;8.40;4.80;;;;;;;;;;5069984;28;20209;-29
2023/04/05 18:33:06;;;;;;;7.17;4.57;;;;;;;;;;5042782;28;20290;-29
2023/04/05 18:35:52;;;;;;;7.77;4.77;;;;;;;;;;5074901;28;20230;-29
2023/04/05 18:38:31;;;;;;;5.27;3.97;;;;;;;;;;5074507;28;20208;-27
2023/04/05 18:44:36;;;;;;;7.67;3.87;;;;;;;;;;4988769;28;20230;-29
2023/04/05 18:47:15;;;;;;;4.47;3.80;;;;;;;;;;5045197;28;20205;-30
2023/04/05 18:50:00;;;;;;;5.47;3.73;;;;;;;;;;5074424;28;20186;-28
2023/04/05 18:55:48;;;;;;;5.70;3.50;;;;;;;;;;5006242;28;20211;-30
2023/04/05 18:58:36;;;;;;;5.17;3.43;;;;;;;;;;5065800;28;20215;-28
2023/04/05 19:01:19;;;;;;;5.00;3.70;;;;;;;;;;5062128;28;20201;-26
2023/04/05 19:04:15;;;;;;;6.30;3.67;;;;;;;;;;5069558;28;20247;-29
2023/04/05 19:06:54;;;;;;;5.47;3.70;;;;;;;;;;5073656;28;20205;-28
2023/04/05 19:09:34;;;;;;;5.20;3.80;;;;;;;;;;5065541;28;20214;-29
2023/04/05 19:15:09;;;;;;;3.63;3.33;;;;;;;;;;5034331;28;20202;-29
2023/04/05 19:17:52;;;;;;;5.17;4.30;;;;;;;;;;5055989;28;20201;-29
2023/04/05 19:26:39;;;;;;;6.87;4.67;;;;;;;;;;5105089;28;20268;-35
2023/04/05 19:35:23;;;;;;;;;;;;;;;;;;;;;
2023/04/05 19:38:06;;;;;;;3.83;3.13;;;;;;;;;;5062330;28;20213;-28
2023/04/05 19:40:57;;;;;;;5.83;4.00;;;;;;;;;;5060898;28;20212;-28
2023/04/05 19:56:01;;;;;;;6.67;4.80;;;;;;;;;;5055200;28;20221;-29
2023/04/05 19:58:52;;;;;;;7.20;4.63;;;;;;;;;;5066882;28;20205;-28
2023/04/05 20:04:33;;;;;;;10.50;6.37;;;;;;;;;;5046764;28;20230;-30
2023/04/05 20:07:20;;;;;;;;;;;;;;;;;;;;;
2023/04/05 20:13:16;;;;;;;9.20;5.57;;;;;;;;;;5057007;28;20720;-31
2023/04/05 20:16:05;;;;;;;7.87;5.03;;;;;;;;;;5057329;28;20236;-28
2023/04/05 20:19:07;;;;;;;9.77;5.37;;;;;;;;;;5062582;28;20232;-27
2023/04/05 20:27:25;;;;;;;8.87;5.93;;;;;;;;;;5054497;28;20237;-28
2023/04/05 20:29:53;;;;;;;10.80;6.03;;;;;;;;;;5064005;28;20304;-29
2023/04/05 20:32:28;;;;;;;18.50;10.23;;;;;;;;;;5055479;28;20205;-29
2023/04/05 20:37:58;;;;;;;9.67;5.87;;;;;;;;;;5041818;28;20260;-29
2023/04/05 20:46:47;;;;;;;7.30;5.33;;;;;;;;;;5035129;28;20210;-30